createdAt,value
2023-02-03T00:00:51.867Z,98403.28
2023-02-03T00:03:22.284Z,98391.13
2023-02-03T00:05:54.550Z,98394.41
2023-02-03T00:08:25.635Z,98390.50
2023-02-03T00:10:56.888Z,98388.38
2023-02-03T00:13:27.410Z,98389.72
2023-02-03T00:15:58.664Z,98387.53
2023-02-03T00:18:29.389Z,98391.22
2023-02-03T00:21:01.362Z,98381.41
2023-02-03T00:23:32.586Z,98376.00
2023-02-03T00:26:10.108Z,98380.34
2023-02-03T00:28:41.246Z,98387.59
2023-02-03T00:31:19.195Z,98392.59
2023-02-03T00:33:50.123Z,98397.56
2023-02-03T00:36:23.356Z,98397.06
2023-02-03T00:38:54.068Z,98399.50
2023-02-03T00:41:25.569Z,98399.53
2023-02-03T00:43:57.492Z,98399.53
2023-02-03T00:46:28.233Z,98409.81
2023-02-03T00:48:59.140Z,98396.06
2023-02-03T00:51:31.956Z,98386.19
2023-02-03T00:54:03.172Z,98387.06
2023-02-03T00:56:34.067Z,98387.00
2023-02-03T00:59:04.533Z,98386.72
2023-02-03T01:01:34.829Z,98381.59
2023-02-03T01:04:05.553Z,98390.75
2023-02-03T01:06:37.912Z,98395.00
2023-02-03T01:09:08.457Z,98387.84
2023-02-03T01:11:38.839Z,98392.22
2023-02-03T01:14:09.439Z,98384.97
2023-02-03T01:16:40.479Z,98376.38
2023-02-03T01:19:11.189Z,98373.22
2023-02-03T01:21:43.449Z,98376.00
2023-02-03T01:24:15.378Z,98377.66
2023-02-03T01:26:46.400Z,98373.59
2023-02-03T01:29:17.700Z,98358.56
2023-02-03T01:31:48.310Z,98353.56
2023-02-03T01:34:18.805Z,98355.34
2023-02-03T01:36:52.159Z,98356.16
2023-02-03T01:39:22.211Z,98357.94
2023-02-03T01:41:53.138Z,98365.69
2023-02-03T01:44:43.702Z,98333.84
2023-02-03T01:47:20.589Z,98338.03
2023-02-03T01:49:53.694Z,98345.31
2023-02-03T01:52:25.769Z,98335.47
2023-02-03T01:54:58.285Z,98346.97
2023-02-03T01:57:32.178Z,98346.50
2023-02-03T02:00:03.438Z,98355.41
2023-02-03T02:02:35.247Z,98351.56
2023-02-03T02:05:10.611Z,98338.03
2023-02-03T02:07:42.421Z,98334.19
2023-02-03T02:10:13.722Z,98333.66
2023-02-03T02:12:44.030Z,98333.06
2023-02-03T02:15:14.353Z,98328.56
2023-02-03T02:18:06.271Z,98347.03
2023-02-03T02:21:13.755Z,98331.56
2023-02-03T02:24:24.919Z,98337.03
2023-02-03T02:27:05.106Z,98329.81
2023-02-03T02:30:01.537Z,98334.88
2023-02-03T02:32:44.269Z,98329.34
2023-02-03T02:35:22.069Z,98335.00
2023-02-03T02:37:55.783Z,98327.19
2023-02-03T02:40:33.454Z,98327.69
2023-02-03T02:43:09.780Z,98331.56
2023-02-03T02:45:47.148Z,98326.06
2023-02-03T02:48:25.080Z,98318.09
2023-02-03T02:50:58.689Z,98323.59
2023-02-03T02:53:34.417Z,98318.94
2023-02-03T02:56:09.732Z,98316.41
2023-02-03T02:58:42.733Z,98315.22
2023-02-03T03:01:13.357Z,98314.53
2023-02-03T03:03:45.593Z,98306.31
2023-02-03T03:06:19.876Z,98310.25
2023-02-03T03:08:53.902Z,98302.69
2023-02-03T03:11:25.431Z,98296.69
2023-02-03T03:13:57.214Z,98295.47
2023-02-03T03:16:29.757Z,98297.22
2023-02-03T03:19:04.748Z,98303.72
2023-02-03T03:21:39.237Z,98299.44
2023-02-03T03:24:14.364Z,98291.66
2023-02-03T03:26:48.401Z,98301.59
2023-02-03T03:29:21.259Z,98300.88
2023-02-03T03:31:52.219Z,98303.91
2023-02-03T03:34:23.805Z,98303.19
2023-02-03T03:36:59.623Z,98308.09
2023-02-03T03:39:34.699Z,98305.06
2023-02-03T03:42:11.264Z,98317.44
2023-02-03T03:44:47.343Z,98318.34
2023-02-03T03:47:21.710Z,98321.59
2023-02-03T03:49:53.972Z,98335.25
2023-02-03T03:52:28.600Z,98325.94
2023-02-03T03:54:59.839Z,98331.41
2023-02-03T03:57:33.030Z,98330.19
2023-02-03T04:00:06.390Z,98330.03
2023-02-03T04:02:37.542Z,98324.81
2023-02-03T04:05:15.303Z,98327.81
2023-02-03T04:07:47.744Z,98326.97
2023-02-03T04:10:24.598Z,98317.03
2023-02-03T04:12:54.949Z,98316.47
2023-02-03T04:15:25.517Z,98318.78
2023-02-03T04:17:57.441Z,98315.63
2023-02-03T04:20:29.614Z,98316.56
2023-02-03T04:22:59.752Z,98323.00
2023-02-03T04:25:29.883Z,98310.63
2023-02-03T04:28:01.183Z,98311.66
2023-02-03T04:30:31.696Z,98312.53
2023-02-03T04:33:02.484Z,98309.44
2023-02-03T04:35:33.966Z,98315.44
2023-02-03T04:38:04.540Z,98314.13
2023-02-03T04:40:35.161Z,98321.66
2023-02-03T04:43:09.815Z,98310.72
2023-02-03T04:45:39.977Z,98318.88
2023-02-03T04:48:11.370Z,98322.81
2023-02-03T04:50:43.272Z,98326.38
2023-02-03T04:53:15.656Z,98317.59
2023-02-03T04:55:50.024Z,98331.47
2023-02-03T04:58:20.676Z,98311.56
2023-02-03T05:00:50.615Z,98299.63
2023-02-03T05:03:22.603Z,98311.78
2023-02-03T05:05:58.765Z,98317.63
2023-02-03T05:08:29.360Z,98324.59
2023-02-03T05:11:01.778Z,98310.31
2023-02-03T05:13:32.399Z,98302.44
2023-02-03T05:16:01.996Z,98296.22
2023-02-03T05:18:33.484Z,98296.00
2023-02-03T05:21:06.001Z,98286.47
2023-02-03T05:23:36.976Z,98279.00
2023-02-03T05:26:07.311Z,98295.03
2023-02-03T05:28:37.537Z,98305.88
2023-02-03T05:31:08.494Z,98303.75
2023-02-03T05:33:39.564Z,98297.16
2023-02-03T05:36:12.450Z,98295.69
2023-02-03T05:38:43.079Z,98302.72
2023-02-03T05:41:30.761Z,98307.28
2023-02-03T05:44:00.502Z,98296.66
2023-02-03T05:46:31.761Z,98288.44
2023-02-03T05:49:02.439Z,98299.22
2023-02-03T05:51:34.252Z,98301.84
2023-02-03T05:54:04.122Z,98289.69
2023-02-03T05:56:33.636Z,98282.09
2023-02-03T05:59:03.725Z,98287.50
2023-02-03T06:01:34.840Z,98292.41
2023-02-03T06:04:06.697Z,98281.44
2023-02-03T06:06:39.175Z,98291.66
2023-02-03T06:09:10.770Z,98285.41
2023-02-03T06:11:43.095Z,98273.13
2023-02-03T06:14:13.392Z,98267.78
2023-02-03T06:16:43.997Z,98252.09
2023-02-03T06:19:21.648Z,98263.25
2023-02-03T06:22:03.245Z,98260.22
2023-02-03T06:24:42.923Z,98265.03
2023-02-03T06:27:22.933Z,98257.84
2023-02-03T06:29:54.212Z,98250.66
2023-02-03T06:32:25.311Z,98250.94
2023-02-03T06:34:55.392Z,98262.81
2023-02-03T06:37:27.282Z,98259.31
2023-02-03T06:39:57.490Z,98253.56
2023-02-03T06:42:28.062Z,98249.03
2023-02-03T06:44:57.795Z,98255.47
2023-02-03T06:47:28.789Z,98251.31
2023-02-03T06:49:59.533Z,98232.91
2023-02-03T06:52:31.004Z,98238.44
2023-02-03T06:55:00.734Z,98245.91
2023-02-03T06:57:30.963Z,98238.94
2023-02-03T07:00:01.602Z,98232.31
2023-02-03T07:02:32.191Z,98236.59
2023-02-03T07:05:02.768Z,98233.75
2023-02-03T07:07:35.642Z,98235.16
2023-02-03T07:10:05.337Z,98225.06
2023-02-03T07:12:36.925Z,98216.06
2023-02-03T07:15:08.400Z,98223.41
2023-02-03T07:17:38.821Z,98222.78
2023-02-03T07:20:10.624Z,98207.00
2023-02-03T07:22:44.751Z,98210.59
2023-02-03T07:25:15.697Z,98220.88
2023-02-03T07:27:45.816Z,98223.91
2023-02-03T07:30:16.581Z,98221.41
2023-02-03T07:32:50.286Z,98205.09
2023-02-03T07:35:21.300Z,98203.03
2023-02-03T07:37:53.293Z,98192.78
2023-02-03T07:40:23.821Z,98203.19
2023-02-03T07:42:54.718Z,98194.19
2023-02-03T07:45:25.083Z,98170.50
2023-02-03T07:47:55.663Z,98166.41
2023-02-03T07:50:25.526Z,98154.09
2023-02-03T07:52:57.366Z,98156.81
2023-02-03T07:55:28.719Z,98162.78
2023-02-03T07:58:02.914Z,98168.25
2023-02-03T08:00:34.797Z,98185.88
2023-02-03T08:03:11.380Z,98190.41
2023-02-03T08:05:45.686Z,98192.72
2023-02-03T08:08:17.989Z,98191.59
2023-02-03T08:10:48.602Z,98210.38
2023-02-03T08:13:18.809Z,98218.94
2023-02-03T08:15:50.356Z,98208.34
2023-02-03T08:18:22.859Z,98215.38
2023-02-03T08:20:53.470Z,98221.94
2023-02-03T08:23:26.510Z,98222.13
2023-02-03T08:25:56.493Z,98191.63
2023-02-03T08:28:26.698Z,98194.97
2023-02-03T08:30:58.163Z,98219.47
2023-02-03T08:33:29.903Z,98208.59
2023-02-03T08:36:01.363Z,98198.81
2023-02-03T08:38:33.472Z,98206.31
2023-02-03T08:41:03.570Z,98208.41
2023-02-03T08:43:33.583Z,98209.91
2023-02-03T08:46:06.136Z,98221.59
2023-02-03T08:48:37.183Z,98216.97
2023-02-03T08:51:13.264Z,98198.59
2023-02-03T08:53:45.961Z,98208.06
2023-02-03T08:56:16.788Z,98208.84
2023-02-03T08:58:47.232Z,98182.00
2023-02-03T09:01:19.283Z,98180.78
2023-02-03T09:03:49.317Z,98179.28
2023-02-03T09:06:22.749Z,98174.41
2023-02-03T09:08:55.547Z,98168.09
2023-02-03T09:11:26.734Z,98164.53
2023-02-03T09:13:58.215Z,98155.56
2023-02-03T09:16:31.413Z,98174.09
2023-02-03T09:19:02.109Z,98173.16
2023-02-03T09:21:38.882Z,98179.69
2023-02-03T09:24:13.531Z,98181.41
2023-02-03T09:26:43.445Z,98186.34
2023-02-03T09:29:13.745Z,98189.31
2023-02-03T09:31:44.184Z,98197.63
2023-02-03T09:34:14.628Z,98187.16
2023-02-03T09:36:46.360Z,98168.25
2023-02-03T09:39:17.549Z,98170.59
2023-02-03T09:42:15.796Z,98173.44
2023-02-03T09:44:52.429Z,98187.38
2023-02-03T09:47:26.838Z,98180.44
2023-02-03T09:50:00.289Z,98173.38
2023-02-03T09:52:32.872Z,98160.22
2023-02-03T09:55:08.319Z,98154.38
2023-02-03T09:57:43.248Z,98143.13
2023-02-03T10:00:21.596Z,98158.66
2023-02-03T10:02:58.769Z,98157.22
2023-02-03T10:05:38.461Z,98124.25
2023-02-03T10:08:17.399Z,98122.03
2023-02-03T10:11:10.006Z,98127.50
2023-02-03T10:13:52.525Z,98128.69
2023-02-03T10:16:44.905Z,98126.00
2023-02-03T10:19:21.038Z,98087.16
2023-02-03T10:21:53.367Z,98084.34
2023-02-03T10:24:29.078Z,98122.00
2023-02-03T10:27:01.264Z,98074.06
2023-02-03T10:29:37.112Z,98066.03
2023-02-03T10:32:12.201Z,98090.09
2023-02-03T10:34:44.763Z,98064.59
2023-02-03T10:37:23.141Z,98041.63
2023-02-03T10:39:53.929Z,98047.22
2023-02-03T10:42:46.981Z,98033.34
2023-02-03T10:45:17.951Z,98028.34
2023-02-03T10:47:51.116Z,98019.66
2023-02-03T10:50:22.829Z,98009.94
2023-02-03T10:52:53.245Z,97998.13
2023-02-03T10:55:33.992Z,97997.72
2023-02-03T10:58:12.788Z,97982.44
2023-02-03T11:00:43.351Z,97982.66
2023-02-03T11:03:25.121Z,97973.31
2023-02-03T11:06:10.907Z,97983.34
2023-02-03T11:08:43.855Z,97978.13
2023-02-03T11:11:18.637Z,97985.97
2023-02-03T11:13:57.162Z,97992.44
2023-02-03T11:16:28.051Z,97991.22
2023-02-03T11:19:00.595Z,97977.81
2023-02-03T11:21:33.755Z,97981.50
2023-02-03T11:24:07.077Z,97972.91
2023-02-03T11:26:39.326Z,97966.56
2023-02-03T11:29:19.363Z,97966.06
2023-02-03T11:31:52.229Z,97964.53
2023-02-03T11:34:26.478Z,97959.53
2023-02-03T11:36:56.699Z,97937.28
2023-02-03T11:39:29.821Z,97931.66
2023-02-03T11:42:00.423Z,97934.00
2023-02-03T11:44:34.172Z,97913.72
2023-02-03T11:47:06.008Z,97911.94
2023-02-03T11:50:01.607Z,97904.00
2023-02-03T11:52:56.095Z,97902.13
2023-02-03T11:55:36.346Z,97900.13
2023-02-03T11:58:29.804Z,97878.44
2023-02-03T12:01:09.557Z,97864.03
2023-02-03T12:04:14.577Z,97871.25
2023-02-03T12:07:01.674Z,97859.00
2023-02-03T12:09:38.719Z,97867.38
2023-02-03T12:12:45.631Z,97865.63
2023-02-03T12:15:35.354Z,97862.69
2023-02-03T12:18:16.353Z,97865.69
2023-02-03T12:21:00.649Z,97862.47
2023-02-03T12:23:43.382Z,97844.00
2023-02-03T12:26:20.585Z,97820.47
2023-02-03T12:29:06.278Z,97804.16
2023-02-03T12:31:40.653Z,97804.34
2023-02-03T12:34:19.297Z,97812.50
2023-02-03T12:36:54.236Z,97799.63
2023-02-03T12:39:30.350Z,97796.53
2023-02-03T12:42:04.008Z,97793.56
2023-02-03T12:44:37.986Z,97786.16
2023-02-03T12:47:13.687Z,97773.06
2023-02-03T12:49:48.965Z,97758.28
2023-02-03T12:52:23.767Z,97746.19
2023-02-03T12:55:00.897Z,97747.91
2023-02-03T12:57:35.207Z,97748.81
2023-02-03T13:00:20.985Z,97741.22
2023-02-03T13:03:01.368Z,97732.44
2023-02-03T13:05:43.940Z,97728.84
2023-02-03T13:08:20.575Z,97722.72
2023-02-03T13:10:54.688Z,97713.84
2023-02-03T13:13:31.735Z,97707.38
2023-02-03T13:16:04.260Z,97705.00
2023-02-03T13:18:38.389Z,97695.09
2023-02-03T13:21:12.954Z,97678.81
2023-02-03T13:23:47.919Z,97674.97
2023-02-03T13:26:49.943Z,97660.31
2023-02-03T13:29:46.426Z,97646.91
2023-02-03T13:32:26.973Z,97636.13
2023-02-03T13:35:14.538Z,97620.31
2023-02-03T13:38:10.692Z,97601.06
2023-02-03T13:40:48.114Z,97614.50
2023-02-03T13:43:37.251Z,97611.81
2023-02-03T13:46:14.408Z,97616.84
2023-02-03T13:48:48.254Z,97604.50
2023-02-03T13:51:20.288Z,97619.09
2023-02-03T13:53:53.332Z,97623.38
2023-02-03T13:56:24.961Z,97621.44
2023-02-03T13:59:07.767Z,97612.22
2023-02-03T14:01:40.636Z,97581.00
2023-02-03T14:04:36.264Z,97590.25
2023-02-03T14:07:34.168Z,97594.88
2023-02-03T14:10:20.213Z,97574.84
2023-02-03T14:13:00.980Z,97557.50
2023-02-03T14:15:36.994Z,97552.50
2023-02-03T14:18:26.264Z,97537.84
2023-02-03T14:21:12.631Z,97531.28
2023-02-03T14:24:00.448Z,97512.78
2023-02-03T14:26:41.438Z,97506.97
2023-02-03T14:29:25.567Z,97501.59
2023-02-03T14:32:02.079Z,97485.47
2023-02-03T14:34:38.193Z,97475.81
2023-02-03T14:37:18.515Z,97467.72
2023-02-03T14:40:26.249Z,97460.00
2023-02-03T14:43:29.594Z,97453.47
2023-02-03T14:46:30.185Z,97447.69
2023-02-03T14:49:13.796Z,97443.78
2023-02-03T14:51:59.665Z,97439.56
2023-02-03T14:54:51.200Z,97433.81
2023-02-03T14:57:33.946Z,97416.88
2023-02-03T15:00:11.344Z,97428.44
2023-02-03T15:03:23.155Z,97441.50
2023-02-03T15:05:59.011Z,97442.69
2023-02-03T15:08:44.566Z,97429.97
2023-02-03T15:11:31.092Z,97423.41
2023-02-03T15:14:19.543Z,97424.56
2023-02-03T15:17:00.585Z,97421.50
2023-02-03T15:19:34.620Z,97426.88
2023-02-03T15:22:21.587Z,97442.31
2023-02-03T15:24:52.724Z,97445.75
2023-02-03T15:27:26.476Z,97447.69
2023-02-03T15:29:59.447Z,97436.16
2023-02-03T15:32:35.331Z,97460.41
2023-02-03T15:35:06.983Z,97455.38
2023-02-03T15:37:43.273Z,97456.94
2023-02-03T15:40:16.388Z,97453.09
2023-02-03T15:42:55.295Z,97451.16
2023-02-03T15:45:31.212Z,97461.22
2023-02-03T15:48:06.144Z,97447.72
2023-02-03T15:50:40.719Z,97450.81
2023-02-03T15:53:16.164Z,97441.19
2023-02-03T15:55:48.684Z,97453.91
2023-02-03T15:58:22.637Z,97452.75
2023-02-03T16:00:54.852Z,97464.69
2023-02-03T16:03:30.614Z,97472.00
2023-02-03T16:06:10.831Z,97469.31
2023-02-03T16:08:46.765Z,97487.38
2023-02-03T16:11:31.686Z,97487.78
2023-02-03T16:14:03.649Z,97510.84
2023-02-03T16:16:38.639Z,97508.56
2023-02-03T16:19:15.864Z,97513.97
2023-02-03T16:21:56.025Z,97525.09
2023-02-03T16:24:41.639Z,97534.34
2023-02-03T16:27:38.885Z,97560.16
2023-02-03T16:30:43.574Z,97565.56
2023-02-03T16:33:34.883Z,97567.84
2023-02-03T16:36:32.933Z,97560.16
2023-02-03T16:39:28.751Z,97573.69
2023-02-03T16:42:17.765Z,97575.59
2023-02-03T16:45:05.707Z,97570.19
2023-02-03T16:47:53.418Z,97582.50
2023-02-03T16:50:42.159Z,97581.72
2023-02-03T16:53:17.185Z,97594.78
2023-02-03T16:55:48.196Z,97596.34
2023-02-03T16:58:19.206Z,97615.28
2023-02-03T17:00:52.419Z,97616.06
2023-02-03T17:03:25.585Z,97619.53
2023-02-03T17:05:56.975Z,97613.34
2023-02-03T17:08:28.991Z,97612.97
2023-02-03T17:11:06.509Z,97617.22
2023-02-03T17:13:38.650Z,97626.09
2023-02-03T17:16:14.648Z,97606.81
2023-02-03T17:18:46.874Z,97576.31
2023-02-03T17:21:21.146Z,97576.72
2023-02-03T17:23:53.291Z,97590.25
2023-02-03T17:26:23.919Z,97580.59
2023-02-03T17:28:54.385Z,97558.63
2023-02-03T17:31:24.500Z,97567.16
2023-02-03T17:33:55.538Z,97569.44
2023-02-03T17:36:25.962Z,97564.41
2023-02-03T17:55:36.027Z,97525.06
2023-02-03T17:58:06.434Z,97512.31
2023-02-03T18:00:36.844Z,97512.72
2023-02-03T18:03:07.451Z,97533.53
2023-02-03T18:05:38.596Z,97518.50
2023-02-03T18:08:16.341Z,97511.50
2023-02-03T18:10:49.173Z,97507.75
2023-02-03T18:13:24.101Z,97512.38
2023-02-03T18:15:55.231Z,97503.13
2023-02-03T18:18:29.242Z,97506.56
2023-02-03T18:20:59.686Z,97504.66
2023-02-03T18:23:32.088Z,97518.53
2023-02-03T18:26:04.505Z,97521.59
2023-02-03T18:28:35.492Z,97537.84
2023-02-03T18:31:07.724Z,97538.59
2023-02-03T18:33:39.675Z,97506.22
2023-02-03T18:36:13.115Z,97511.22
2023-02-03T18:38:45.093Z,97515.47
2023-02-03T18:41:20.718Z,97496.25
2023-02-03T18:43:51.936Z,97522.81
2023-02-03T18:46:24.010Z,97506.22
2023-02-03T18:48:56.525Z,97515.44
2023-02-03T18:51:27.907Z,97519.34
2023-02-03T18:53:59.921Z,97505.06
2023-02-03T18:56:35.724Z,97500.47
2023-02-03T18:59:11.914Z,97507.03
2023-02-03T19:01:42.568Z,97502.00
2023-02-03T19:04:12.967Z,97498.91
2023-02-03T19:06:45.793Z,97487.69
2023-02-03T19:09:18.625Z,97483.09
2023-02-03T19:11:49.701Z,97496.97
2023-02-03T19:14:20.422Z,97490.44
2023-02-03T19:16:53.689Z,97494.31
2023-02-03T19:19:23.937Z,97486.19
2023-02-03T19:21:54.471Z,97497.41
2023-02-03T19:24:27.571Z,97501.56
2023-02-03T19:26:58.975Z,97496.88
2023-02-03T19:29:29.824Z,97503.06
2023-02-03T19:32:00.557Z,97503.84
2023-02-03T19:34:31.286Z,97506.19
2023-02-03T19:37:01.908Z,97495.81
2023-02-03T19:39:33.564Z,97486.53
2023-02-03T19:42:05.553Z,97501.84
2023-02-03T19:44:38.640Z,97506.19
2023-02-03T19:47:09.133Z,97502.22
2023-02-03T19:49:39.465Z,97496.09
2023-02-03T19:52:10.636Z,97499.19
2023-02-03T19:54:41.532Z,97487.66
2023-02-03T19:57:13.294Z,97510.75
2023-02-03T19:59:43.207Z,97518.44
2023-02-03T20:02:16.414Z,97504.97
2023-02-03T20:04:48.214Z,97510.75
2023-02-03T20:07:25.711Z,97510.66
2023-02-03T20:09:56.686Z,97502.19
2023-02-03T20:12:28.728Z,97493.78
2023-02-03T20:15:00.640Z,97492.63
2023-02-03T20:17:31.497Z,97505.34
2023-02-03T20:20:01.779Z,97493.00
2023-02-03T20:22:32.524Z,97491.50
2023-02-03T20:25:03.749Z,97483.78
2023-02-03T20:27:35.684Z,97491.88
2023-02-03T20:30:06.033Z,97498.41
2023-02-03T20:32:36.694Z,97499.53
2023-02-03T20:35:07.474Z,97487.63
2023-02-03T20:37:38.308Z,97493.78
2023-02-03T20:40:14.726Z,97510.06
2023-02-03T20:42:47.679Z,97481.91
2023-02-03T20:45:18.188Z,97471.13
2023-02-03T20:47:49.093Z,97482.31
2023-02-03T20:50:23.638Z,97465.78
2023-02-03T20:52:58.724Z,97493.16
2023-02-03T20:55:28.284Z,97482.75
2023-02-03T20:58:02.785Z,97488.16
2023-02-03T21:00:33.141Z,97497.00
2023-02-03T21:03:21.831Z,97484.66
2023-02-03T21:05:51.849Z,97498.56
2023-02-03T21:08:23.504Z,97487.00
2023-02-03T21:10:53.820Z,97487.00
2023-02-03T21:13:27.392Z,97498.56
2023-02-03T21:15:59.955Z,97496.25
2023-02-03T21:18:37.385Z,97486.63
2023-02-03T21:21:10.998Z,97508.19
2023-02-03T21:23:42.657Z,97495.47
2023-02-03T21:26:21.117Z,97490.09
2023-02-03T21:28:55.852Z,97494.69
2023-02-03T21:31:28.873Z,97502.03
2023-02-03T21:34:00.180Z,97486.63
2023-02-03T21:36:33.120Z,97483.94
2023-02-03T21:39:03.955Z,97487.00
2023-02-03T21:41:36.079Z,97482.78
2023-02-03T21:44:29.992Z,97483.53
2023-02-03T21:47:01.895Z,97492.75
2023-02-03T21:49:32.790Z,97509.28
2023-02-03T21:52:03.645Z,97500.47
2023-02-03T21:54:38.862Z,97498.50
2023-02-03T21:57:15.217Z,97500.03
2023-02-03T21:59:47.456Z,97489.28
2023-02-03T22:02:46.367Z,97487.75
2023-02-03T22:05:18.264Z,97466.97
2023-02-03T22:07:48.639Z,97488.72
2023-02-03T22:10:20.136Z,97496.88
2023-02-03T22:12:50.659Z,97499.59
2023-02-03T22:15:22.889Z,97513.81
2023-02-03T22:17:53.262Z,97512.84
2023-02-03T22:20:23.386Z,97509.88
2023-02-03T22:22:53.183Z,97514.38
2023-02-03T22:25:24.435Z,97506.03
2023-02-03T22:27:54.688Z,97508.22
2023-02-03T22:30:26.403Z,97519.66
2023-02-03T22:32:58.269Z,97527.78
2023-02-03T22:35:29.212Z,97535.22
2023-02-03T22:37:59.798Z,97535.84
2023-02-03T22:40:30.646Z,97545.41
2023-02-03T22:43:01.872Z,97545.97
2023-02-03T22:45:33.819Z,97546.59
2023-02-03T22:48:04.156Z,97544.34
2023-02-03T22:50:36.393Z,97544.16
2023-02-03T22:53:09.738Z,97546.72
2023-02-03T22:55:41.642Z,97547.00
2023-02-03T22:58:11.456Z,97558.00
2023-02-03T23:00:43.384Z,97544.56
2023-02-03T23:03:13.162Z,97540.94
2023-02-03T23:05:43.292Z,97535.84
2023-02-03T23:08:14.213Z,97549.22
2023-02-03T23:10:44.370Z,97541.09
2023-02-03T23:13:13.956Z,97532.78
2023-02-03T23:15:45.743Z,97540.81
2023-02-03T23:18:15.613Z,97533.22
2023-02-03T23:20:46.357Z,97534.38
2023-02-03T23:23:16.721Z,97541.69
2023-02-03T23:25:46.870Z,97541.06
2023-02-03T23:28:16.644Z,97531.78
2023-02-03T23:30:48.394Z,97534.16
2023-02-03T23:33:18.859Z,97541.16
2023-02-03T23:35:48.112Z,97553.22
2023-02-03T23:38:18.670Z,97556.94
2023-02-03T23:40:50.317Z,97557.16
2023-02-03T23:43:20.255Z,97537.34
2023-02-03T23:45:51.764Z,97566.28
2023-02-03T23:48:22.258Z,97556.13
2023-02-03T23:50:52.382Z,97547.25
2023-02-03T23:53:22.166Z,97558.91
2023-02-03T23:55:52.652Z,97553.72
2023-02-03T23:58:22.754Z,97558.94
